createdAt,value
2023-01-29T00:01:26.727Z,0.15
2023-01-29T00:03:53.632Z,0.02
2023-01-29T00:06:20.958Z,0.01
2023-01-29T00:08:48.060Z,0.06
2023-01-29T00:11:16.146Z,0.03
2023-01-29T00:13:44.001Z,0.05
2023-01-29T00:16:11.061Z,0.01
2023-01-29T00:18:41.350Z,0.04
2023-01-29T00:21:17.310Z,0.01
2023-01-29T00:23:44.647Z,0.05
2023-01-29T00:26:12.337Z,-0.01
2023-01-29T00:28:43.660Z,-0.09
2023-01-29T00:31:17.040Z,-0.07
2023-01-29T00:33:44.146Z,0.05
2023-01-29T00:36:14.075Z,-0.08
2023-01-29T00:38:40.935Z,-0.03
2023-01-29T00:41:32.402Z,0.00
2023-01-29T00:44:18.884Z,0.05
2023-01-29T00:46:46.353Z,-0.13
2023-01-29T00:49:13.469Z,-0.09
2023-01-29T00:51:40.473Z,-0.05
2023-01-29T00:54:07.737Z,-0.13
2023-01-29T00:56:36.776Z,-0.08
2023-01-29T00:59:04.736Z,-0.09
2023-01-29T01:01:50.480Z,-0.06
2023-01-29T01:04:17.388Z,0.04
2023-01-29T01:06:44.251Z,-0.02
2023-01-29T01:09:30.023Z,-0.07
2023-01-29T01:11:56.875Z,-0.10
2023-01-29T01:14:23.652Z,-0.13
2023-01-29T01:16:50.542Z,-0.11
2023-01-29T01:19:17.857Z,-0.19
2023-01-29T01:21:47.170Z,-0.15
2023-01-29T01:24:14.542Z,-0.25
2023-01-29T01:26:41.595Z,-0.28
2023-01-29T01:29:09.217Z,-0.36
2023-01-29T01:31:36.321Z,-0.34
2023-01-29T01:34:03.295Z,-0.28
2023-01-29T01:36:32.356Z,-0.38
2023-01-29T01:38:59.352Z,-0.32
2023-01-29T01:41:26.767Z,-0.28
2023-01-29T01:43:59.029Z,-0.22
2023-01-29T01:46:29.834Z,-0.28
2023-01-29T01:49:03.055Z,-0.28
2023-01-29T01:51:32.287Z,-0.18
2023-01-29T01:54:07.827Z,-0.15
2023-01-29T01:56:41.629Z,0.00
2023-01-29T01:59:12.105Z,0.03
2023-01-29T02:01:43.004Z,-0.04
2023-01-29T02:04:35.070Z,-0.08
2023-01-29T02:07:25.126Z,-0.13
2023-01-29T02:10:08.611Z,-0.24
2023-01-29T02:12:37.115Z,-0.21
2023-01-29T02:15:04.840Z,-0.17
2023-01-29T02:17:32.483Z,-0.17
2023-01-29T02:20:25.646Z,-0.19
2023-01-29T02:22:55.432Z,-0.15
2023-01-29T02:25:36.313Z,-0.23
2023-01-29T02:28:26.171Z,-0.19
2023-01-29T02:30:58.255Z,-0.15
2023-01-29T02:33:34.101Z,-0.11
2023-01-29T02:36:09.909Z,-0.02
2023-01-29T02:38:47.723Z,-0.20
2023-01-29T02:41:22.983Z,-0.23
2023-01-29T02:44:19.389Z,-0.19
2023-01-29T02:47:01.573Z,-0.21
2023-01-29T02:49:39.381Z,-0.33
2023-01-29T02:52:23.540Z,-0.32
2023-01-29T02:55:15.929Z,-0.40
2023-01-29T02:57:46.662Z,-0.44
2023-01-29T03:00:22.166Z,-0.48
2023-01-29T03:03:07.330Z,-0.54
2023-01-29T03:06:06.405Z,-0.59
2023-01-29T03:08:43.194Z,-0.65
2023-01-29T03:11:16.125Z,-0.65
2023-01-29T03:28:36.759Z,-0.82
2023-01-29T03:31:26.439Z,-0.68
2023-01-29T03:34:24.547Z,-0.58
2023-01-29T03:36:51.175Z,-0.60
2023-01-29T03:39:18.252Z,-0.61
2023-01-29T03:41:56.386Z,-0.60
2023-01-29T03:44:54.383Z,-0.58
2023-01-29T03:47:43.186Z,-0.64
2023-01-29T03:50:21.272Z,-0.64
2023-01-29T03:53:06.914Z,-0.70
2023-01-29T03:55:40.652Z,-0.73
2023-01-29T03:58:32.452Z,-0.71
2023-01-29T04:01:09.606Z,-0.76
2023-01-29T04:03:46.392Z,-0.76
2023-01-29T04:06:27.467Z,-0.77
2023-01-29T04:09:37.545Z,-0.75
2023-01-29T04:12:10.082Z,-0.76
2023-01-29T04:14:40.162Z,-0.73
2023-01-29T04:17:35.114Z,-0.75
2023-01-29T04:20:19.173Z,-0.78
2023-01-29T04:22:49.478Z,-0.77
2023-01-29T04:25:32.420Z,-0.79
2023-01-29T04:28:07.103Z,-0.65
2023-01-29T04:31:03.004Z,-0.73
2023-01-29T04:34:11.344Z,-0.70
2023-01-29T04:37:00.896Z,-0.73
2023-01-29T04:39:55.390Z,-0.75
2023-01-29T04:42:25.488Z,-0.68
2023-01-29T04:45:18.383Z,-0.57
2023-01-29T04:48:10.408Z,-0.67
2023-01-29T04:51:28.078Z,-0.69
2023-01-29T04:54:01.080Z,-0.75
2023-01-29T04:57:03.595Z,-0.82
2023-01-29T04:59:45.940Z,-0.78
2023-01-29T05:02:14.557Z,-0.72
2023-01-29T05:04:44.688Z,-0.77
2023-01-29T05:07:15.264Z,-0.72
2023-01-29T05:09:45.563Z,-0.74
2023-01-29T05:12:14.620Z,-0.76
2023-01-29T05:14:44.668Z,-0.75
2023-01-29T05:17:20.360Z,-0.77
2023-01-29T05:19:47.755Z,-0.65
2023-01-29T05:22:17.845Z,-0.77
2023-01-29T05:24:44.997Z,-0.72
2023-01-29T05:27:37.565Z,-0.62
2023-01-29T05:30:05.223Z,-0.56
2023-01-29T05:32:32.034Z,-0.60
2023-01-29T05:34:58.952Z,-0.55
2023-01-29T05:37:25.841Z,-0.69
2023-01-29T05:39:52.708Z,-0.59
2023-01-29T05:42:19.548Z,-0.51
2023-01-29T05:44:46.392Z,-0.56
2023-01-29T05:47:13.294Z,-0.47
2023-01-29T05:49:40.100Z,-0.52
2023-01-29T05:52:07.037Z,-0.44
2023-01-29T05:54:33.946Z,-0.41
2023-01-29T05:57:00.840Z,-0.50
2023-01-29T05:59:27.708Z,-0.51
2023-01-29T06:01:54.608Z,-0.48
2023-01-29T06:04:21.446Z,-0.26
2023-01-29T06:06:48.275Z,-0.25
2023-01-29T06:09:15.124Z,-0.28
2023-01-29T06:11:42.035Z,-0.24
2023-01-29T06:14:08.853Z,-0.41
2023-01-29T06:16:35.822Z,-0.23
2023-01-29T06:19:02.649Z,-0.19
2023-01-29T06:21:29.552Z,-0.20
2023-01-29T06:23:56.511Z,-0.10
2023-01-29T06:26:23.401Z,-0.19
2023-01-29T06:28:50.913Z,-0.17
2023-01-29T06:31:37.983Z,-0.09
2023-01-29T06:34:06.185Z,-0.15
2023-01-29T06:36:34.794Z,-0.02
2023-01-29T06:39:01.708Z,0.15
2023-01-29T06:41:28.798Z,-0.03
2023-01-29T06:43:55.710Z,0.07
2023-01-29T06:46:22.690Z,0.17
2023-01-29T06:48:49.509Z,0.29
2023-01-29T06:51:16.418Z,0.26
2023-01-29T06:53:45.776Z,0.27
2023-01-29T06:56:13.274Z,0.45
2023-01-29T06:58:40.180Z,0.45
2023-01-29T07:01:09.723Z,0.39
2023-01-29T07:03:37.094Z,0.42
2023-01-29T07:06:05.289Z,0.48
2023-01-29T07:08:32.177Z,0.48
2023-01-29T07:11:02.119Z,0.42
2023-01-29T07:13:29.373Z,0.59
2023-01-29T07:16:03.380Z,0.45
2023-01-29T07:18:31.103Z,0.37
2023-01-29T07:20:58.769Z,0.36
2023-01-29T07:23:25.639Z,0.24
2023-01-29T07:25:52.473Z,0.34
2023-01-29T07:28:20.678Z,0.26
2023-01-29T07:30:47.839Z,0.22
2023-01-29T07:33:14.723Z,0.30
2023-01-29T07:35:43.688Z,0.31
2023-01-29T07:38:11.908Z,0.36
2023-01-29T07:40:38.827Z,0.36
2023-01-29T07:43:07.626Z,0.27
2023-01-29T07:45:38.233Z,0.37
2023-01-29T07:48:12.109Z,0.33
2023-01-29T07:50:40.016Z,0.28
2023-01-29T07:53:07.293Z,0.37
2023-01-29T07:55:34.221Z,0.54
2023-01-29T07:58:03.338Z,0.47
2023-01-29T08:00:31.910Z,0.55
2023-01-29T08:03:12.880Z,0.64
2023-01-29T08:05:39.785Z,0.63
2023-01-29T08:08:07.919Z,0.60
2023-01-29T08:10:36.051Z,0.46
2023-01-29T08:13:03.774Z,0.49
2023-01-29T08:15:31.251Z,0.52
2023-01-29T08:17:58.645Z,0.57
2023-01-29T08:20:26.293Z,0.46
2023-01-29T08:23:01.265Z,0.50
2023-01-29T08:25:28.834Z,0.57
2023-01-29T08:27:57.941Z,0.51
2023-01-29T08:30:31.100Z,0.48
2023-01-29T08:32:58.318Z,0.44
2023-01-29T08:35:26.021Z,0.35
2023-01-29T08:37:59.428Z,0.31
2023-01-29T08:40:28.782Z,0.30
2023-01-29T08:43:04.539Z,0.26
2023-01-29T08:45:35.305Z,0.21
2023-01-29T08:48:02.624Z,0.25
2023-01-29T08:50:30.899Z,0.31
2023-01-29T08:52:59.747Z,0.29
2023-01-29T08:55:27.390Z,0.29
2023-01-29T08:57:54.510Z,0.44
2023-01-29T09:00:21.777Z,0.40
2023-01-29T09:02:48.728Z,0.40
2023-01-29T09:05:15.891Z,0.35
2023-01-29T09:07:42.950Z,0.38
2023-01-29T09:10:10.706Z,0.43
2023-01-29T09:12:37.721Z,0.28
2023-01-29T09:15:04.913Z,0.38
2023-01-29T09:17:31.914Z,0.46
2023-01-29T09:19:58.956Z,0.50
2023-01-29T09:22:25.926Z,0.40
2023-01-29T09:24:52.816Z,0.40
2023-01-29T09:27:19.843Z,0.50
2023-01-29T09:29:46.651Z,0.68
2023-01-29T09:32:13.553Z,0.59
2023-01-29T09:34:40.431Z,0.73
2023-01-29T09:37:07.285Z,0.67
2023-01-29T09:39:34.601Z,0.68
2023-01-29T09:42:20.746Z,0.77
2023-01-29T09:44:59.928Z,0.63
2023-01-29T09:47:28.273Z,0.59
2023-01-29T09:50:05.735Z,0.74
2023-01-29T09:52:37.987Z,0.69
2023-01-29T09:55:04.701Z,0.67
2023-01-29T09:57:51.191Z,0.81
2023-01-29T10:00:31.421Z,0.86
2023-01-29T10:03:22.762Z,0.74
2023-01-29T10:05:49.614Z,0.78
2023-01-29T10:08:45.350Z,0.74
2023-01-29T10:11:26.614Z,0.64
2023-01-29T10:14:12.136Z,0.60
2023-01-29T10:17:04.923Z,0.68
2023-01-29T10:19:53.642Z,0.69
2023-01-29T10:22:35.721Z,0.59
2023-01-29T10:25:23.008Z,0.58
2023-01-29T10:27:55.316Z,0.60
2023-01-29T10:30:27.225Z,0.64
2023-01-29T10:32:56.247Z,0.65
2023-01-29T10:35:29.092Z,0.55
2023-01-29T10:38:01.768Z,0.50
2023-01-29T10:40:47.042Z,0.52
2023-01-29T10:43:27.519Z,0.48
2023-01-29T10:46:09.564Z,0.42
2023-01-29T10:48:39.388Z,0.51
2023-01-29T10:51:22.565Z,0.64
2023-01-29T10:54:18.022Z,0.57
2023-01-29T10:56:53.611Z,0.43
2023-01-29T10:59:39.703Z,0.43
2023-01-29T11:02:18.006Z,0.56
2023-01-29T11:04:45.494Z,0.47
2023-01-29T11:07:13.918Z,0.52
2023-01-29T11:09:54.778Z,0.56
2023-01-29T11:12:27.432Z,0.66
2023-01-29T11:15:11.914Z,0.55
2023-01-29T11:17:38.826Z,0.58
2023-01-29T11:20:25.655Z,0.59
2023-01-29T11:22:55.879Z,0.53
2023-01-29T11:25:22.794Z,0.59
2023-01-29T11:27:50.809Z,0.72
2023-01-29T11:30:34.676Z,0.81
2023-01-29T11:33:18.657Z,0.56
2023-01-29T11:35:45.734Z,0.59
2023-01-29T11:38:15.752Z,0.66
2023-01-29T11:40:43.879Z,0.76
2023-01-29T11:43:31.116Z,0.77
2023-01-29T11:46:03.062Z,0.88
2023-01-29T11:48:50.309Z,0.71
2023-01-29T11:51:29.012Z,0.64
2023-01-29T11:54:00.014Z,0.74
2023-01-29T11:56:39.242Z,1.05
2023-01-29T11:59:06.345Z,0.92
2023-01-29T12:01:36.967Z,0.93
2023-01-29T12:04:20.977Z,1.07
2023-01-29T12:06:52.636Z,1.04
2023-01-29T12:09:28.865Z,0.93
2023-01-29T12:11:55.946Z,0.76
2023-01-29T12:14:34.351Z,0.94
2023-01-29T12:17:19.767Z,0.76
2023-01-29T12:19:53.518Z,0.99
2023-01-29T12:22:43.109Z,1.00
2023-01-29T12:25:31.538Z,1.10
2023-01-29T12:28:04.418Z,0.87
2023-01-29T12:30:50.649Z,0.79
2023-01-29T12:33:38.914Z,0.71
2023-01-29T12:36:22.809Z,0.55
2023-01-29T12:38:49.874Z,0.56
2023-01-29T12:41:32.198Z,0.69
2023-01-29T12:44:06.292Z,0.62
2023-01-29T12:46:42.320Z,0.72
2023-01-29T12:49:16.887Z,0.69
2023-01-29T12:52:13.955Z,0.58
2023-01-29T12:55:10.779Z,0.58
2023-01-29T12:57:56.225Z,0.69
2023-01-29T13:00:26.870Z,0.55
2023-01-29T13:03:25.510Z,0.54
2023-01-29T13:05:57.393Z,0.48
2023-01-29T13:08:30.797Z,0.42
2023-01-29T13:11:01.601Z,0.32
2023-01-29T13:13:54.155Z,0.30
2023-01-29T13:16:28.028Z,0.25
2023-01-29T13:19:09.664Z,0.25
2023-01-29T13:21:42.088Z,0.27
2023-01-29T13:24:14.553Z,0.25
2023-01-29T13:26:45.500Z,0.34
2023-01-29T13:29:28.952Z,0.43
2023-01-29T13:31:58.864Z,0.38
2023-01-29T13:34:31.684Z,0.35
2023-01-29T13:37:17.266Z,0.44
2023-01-29T13:39:51.384Z,0.41
2023-01-29T13:42:23.550Z,0.58
2023-01-29T13:44:57.495Z,0.72
2023-01-29T13:47:33.511Z,0.77
2023-01-29T13:50:07.597Z,0.69
2023-01-29T13:52:44.740Z,0.65
2023-01-29T13:55:14.823Z,0.91
2023-01-29T13:57:44.805Z,1.06
2023-01-29T14:00:20.668Z,1.03
2023-01-29T14:03:13.553Z,1.05
2023-01-29T14:05:40.461Z,0.99
2023-01-29T14:08:13.490Z,0.86
2023-01-29T14:10:42.196Z,0.85
2023-01-29T14:13:18.184Z,0.89
2023-01-29T14:16:06.333Z,0.89
2023-01-29T14:18:35.638Z,0.85
2023-01-29T14:21:14.530Z,0.81
2023-01-29T14:23:46.925Z,0.98
2023-01-29T14:26:20.077Z,0.90
2023-01-29T14:28:58.813Z,0.95
2023-01-29T14:31:49.464Z,0.80
2023-01-29T14:34:31.102Z,0.85
2023-01-29T14:37:04.034Z,0.80
2023-01-29T14:39:43.180Z,0.74
2023-01-29T14:42:34.962Z,0.75
2023-01-29T14:45:24.763Z,0.82
2023-01-29T14:47:54.473Z,0.86
2023-01-29T14:50:33.651Z,0.79
2023-01-29T14:53:46.073Z,0.84
2023-01-29T14:56:22.060Z,0.88
2023-01-29T14:59:13.747Z,0.80
2023-01-29T15:01:47.945Z,0.74
2023-01-29T15:04:20.750Z,0.77
2023-01-29T15:06:55.158Z,0.68
2023-01-29T15:09:48.623Z,0.70
2023-01-29T15:12:43.835Z,0.68
2023-01-29T15:30:08.233Z,0.16
2023-01-29T15:32:40.116Z,0.27
2023-01-29T15:35:31.238Z,0.37
2023-01-29T15:38:01.868Z,0.35
2023-01-29T15:40:29.056Z,0.48
2023-01-29T15:42:56.030Z,0.52
2023-01-29T15:45:31.040Z,0.39
2023-01-29T15:48:14.949Z,0.20
2023-01-29T15:50:43.204Z,0.23
2023-01-29T15:53:19.726Z,0.19
2023-01-29T15:55:47.737Z,0.15
2023-01-29T15:58:18.381Z,0.17
2023-01-29T16:00:56.829Z,0.15
2023-01-29T16:03:25.548Z,0.29
2023-01-29T16:05:52.958Z,0.28
2023-01-29T16:08:22.049Z,0.18
2023-01-29T16:10:57.226Z,0.36
2023-01-29T16:13:32.759Z,0.15
2023-01-29T16:16:04.003Z,0.21
2023-01-29T16:18:34.507Z,0.26
2023-01-29T16:21:15.903Z,0.35
2023-01-29T16:23:48.631Z,0.29
2023-01-29T16:26:22.597Z,0.25
2023-01-29T16:28:49.722Z,0.39
2023-01-29T16:31:44.655Z,0.20
2023-01-29T16:34:37.896Z,0.36
2023-01-29T16:37:16.543Z,0.14
2023-01-29T16:39:47.242Z,0.22
2023-01-29T16:42:17.606Z,0.25
2023-01-29T16:44:52.529Z,0.27
2023-01-29T16:47:25.581Z,0.32
2023-01-29T16:50:18.314Z,0.15
2023-01-29T16:53:02.984Z,0.37
2023-01-29T16:55:38.104Z,0.13
2023-01-29T16:58:22.884Z,0.38
2023-01-29T17:00:55.033Z,0.17
2023-01-29T17:03:25.259Z,0.18
2023-01-29T17:05:52.608Z,0.19
2023-01-29T17:08:33.178Z,0.22
2023-01-29T17:11:01.471Z,0.34
2023-01-29T17:13:42.748Z,0.18
2023-01-29T17:16:19.654Z,0.26
2023-01-29T17:18:46.922Z,0.12
2023-01-29T17:21:13.933Z,0.16
2023-01-29T17:23:40.724Z,0.21
2023-01-29T17:26:10.102Z,0.05
2023-01-29T17:28:37.558Z,0.22
2023-01-29T17:31:07.175Z,0.09
2023-01-29T17:33:36.197Z,0.14
2023-01-29T17:36:03.220Z,0.16
2023-01-29T17:38:30.176Z,0.22
2023-01-29T17:41:06.659Z,0.41
2023-01-29T17:43:34.419Z,0.18
2023-01-29T17:46:01.434Z,0.24
2023-01-29T17:48:30.442Z,0.19
2023-01-29T17:51:00.641Z,0.16
2023-01-29T17:53:43.367Z,0.16
2023-01-29T17:56:30.753Z,0.06
2023-01-29T17:58:57.591Z,0.20
2023-01-29T18:01:24.686Z,0.04
2023-01-29T18:03:51.846Z,0.14
2023-01-29T18:06:28.124Z,0.21
2023-01-29T18:08:56.435Z,0.09
2023-01-29T18:11:23.831Z,0.19
2023-01-29T18:13:51.430Z,0.12
2023-01-29T18:16:18.744Z,0.37
2023-01-29T18:18:45.635Z,0.17
2023-01-29T18:21:12.483Z,0.12
2023-01-29T18:23:40.144Z,0.22
2023-01-29T18:26:07.779Z,0.11
2023-01-29T18:28:34.691Z,0.20
2023-01-29T18:31:02.600Z,0.10
2023-01-29T18:33:29.657Z,0.10
2023-01-29T18:35:57.185Z,0.12
2023-01-29T18:38:24.315Z,0.05
2023-01-29T18:40:51.142Z,0.27
2023-01-29T18:43:18.077Z,0.05
2023-01-29T18:45:44.975Z,0.10
2023-01-29T18:48:11.911Z,0.13
2023-01-29T18:50:38.700Z,0.15
2023-01-29T18:53:05.735Z,0.32
2023-01-29T18:55:32.563Z,0.05
2023-01-29T18:58:25.060Z,0.26
2023-01-29T19:00:47.918Z,-0.02
2023-01-29T19:06:33.766Z,0.04
2023-01-29T19:09:00.590Z,-0.05
2023-01-29T19:11:27.419Z,0.07
2023-01-29T19:13:54.989Z,-0.04
2023-01-29T19:16:21.863Z,0.16
2023-01-29T19:18:48.846Z,-0.03
2023-01-29T19:21:16.368Z,0.09
2023-01-29T19:23:44.709Z,0.07
2023-01-29T19:26:12.186Z,-0.11
2023-01-29T19:28:39.325Z,0.13
2023-01-29T19:31:06.244Z,-0.08
2023-01-29T19:33:33.112Z,-0.07
2023-01-29T19:36:00.115Z,0.22
2023-01-29T19:38:27.735Z,0.30
2023-01-29T19:40:57.683Z,0.39
2023-01-29T19:43:24.815Z,0.29
2023-01-29T19:45:58.495Z,0.36
2023-01-29T19:48:26.658Z,0.33
2023-01-29T19:50:58.872Z,0.26
2023-01-29T19:53:27.263Z,0.24
2023-01-29T19:56:16.678Z,0.19
2023-01-29T19:58:43.901Z,0.11
2023-01-29T20:01:16.317Z,0.21
2023-01-29T20:03:46.613Z,0.24
2023-01-29T20:06:15.774Z,0.26
2023-01-29T20:08:45.459Z,0.24
2023-01-29T20:11:14.128Z,0.26
2023-01-29T20:13:41.166Z,0.21
2023-01-29T20:16:08.228Z,0.14
2023-01-29T20:18:35.384Z,0.07
2023-01-29T20:21:10.283Z,0.14
2023-01-29T20:23:39.877Z,0.10
2023-01-29T20:26:09.727Z,0.13
2023-01-29T20:28:36.948Z,0.09
2023-01-29T20:31:05.311Z,0.03
2023-01-29T20:33:33.708Z,0.05
2023-01-29T20:36:03.664Z,0.14
2023-01-29T20:38:31.931Z,0.15
2023-01-29T20:41:16.641Z,0.12
2023-01-29T20:43:44.510Z,0.05
2023-01-29T20:46:11.882Z,0.11
2023-01-29T20:48:39.200Z,0.00
2023-01-29T20:51:13.877Z,-0.02
2023-01-29T20:53:43.170Z,0.16
2023-01-29T20:56:11.334Z,0.17
2023-01-29T20:58:39.009Z,0.09
2023-01-29T21:01:09.627Z,0.19
2023-01-29T21:03:36.605Z,0.06
2023-01-29T21:06:03.617Z,0.07
2023-01-29T21:08:30.476Z,0.14
2023-01-29T21:10:57.384Z,0.11
2023-01-29T21:13:24.297Z,0.20
2023-01-29T21:15:51.377Z,0.15
2023-01-29T21:18:18.327Z,0.18
2023-01-29T21:20:49.022Z,0.15
2023-01-29T21:23:15.913Z,0.08
2023-01-29T21:25:42.832Z,0.17
2023-01-29T21:28:09.806Z,0.11
2023-01-29T21:30:36.969Z,0.17
2023-01-29T21:33:05.382Z,0.16
2023-01-29T21:35:32.696Z,0.26
2023-01-29T21:37:59.553Z,0.30
2023-01-29T21:40:26.512Z,0.37
2023-01-29T21:43:11.556Z,0.24
2023-01-29T21:45:39.755Z,0.16
2023-01-29T21:48:07.138Z,0.25
2023-01-29T21:50:34.294Z,0.11
2023-01-29T21:53:01.551Z,0.16
2023-01-29T21:55:28.533Z,0.28
2023-01-29T21:57:55.450Z,0.24
2023-01-29T22:00:22.489Z,0.24
2023-01-29T22:02:50.247Z,0.16
2023-01-29T22:05:19.799Z,0.21
2023-01-29T22:07:48.305Z,0.25
2023-01-29T22:10:19.919Z,0.22
2023-01-29T22:12:47.777Z,0.21
2023-01-29T22:15:15.613Z,0.17
2023-01-29T22:17:42.719Z,0.34
2023-01-29T22:20:12.064Z,0.36
2023-01-29T22:22:38.980Z,0.33
2023-01-29T22:25:06.194Z,0.32
2023-01-29T22:27:34.036Z,0.46
2023-01-29T22:30:01.343Z,0.25
2023-01-29T22:32:28.605Z,0.10
2023-01-29T22:34:55.610Z,0.02
2023-01-29T22:37:22.503Z,-0.04
2023-01-29T22:39:49.350Z,0.12
2023-01-29T22:42:19.565Z,0.02
2023-01-29T22:44:48.040Z,-0.01
2023-01-29T22:47:15.194Z,0.11
2023-01-29T22:49:44.613Z,0.12
2023-01-29T22:52:11.891Z,0.07
2023-01-29T22:54:40.786Z,0.18
2023-01-29T22:57:12.293Z,0.14
2023-01-29T22:59:39.592Z,0.13
2023-01-29T23:02:07.429Z,0.29
2023-01-29T23:04:34.333Z,0.23
2023-01-29T23:07:01.197Z,0.25
2023-01-29T23:09:28.128Z,0.18
2023-01-29T23:11:55.053Z,0.09
2023-01-29T23:14:22.027Z,0.17
2023-01-29T23:16:48.939Z,0.12
2023-01-29T23:19:15.874Z,0.23
2023-01-29T23:21:42.778Z,0.23
2023-01-29T23:24:10.236Z,0.47
2023-01-29T23:26:55.845Z,0.33
2023-01-29T23:29:23.033Z,0.41
2023-01-29T23:31:49.999Z,0.50
2023-01-29T23:34:16.857Z,0.43
2023-01-29T23:36:43.816Z,0.35
2023-01-29T23:39:11.510Z,0.40
2023-01-29T23:41:38.511Z,0.24
2023-01-29T23:44:05.528Z,0.28
2023-01-29T23:46:32.719Z,0.39
2023-01-29T23:48:59.791Z,0.26
2023-01-29T23:51:26.723Z,0.25
2023-01-29T23:53:53.785Z,0.37
2023-01-29T23:56:21.072Z,0.18
2023-01-29T23:58:48.022Z,0.15
